Terminal Aerodrome Forecast
Issued by NWS

Home | Current Version | Previous Version | Text Only | Print | Product List | Glossary On
Versions: 1 2 3 4 5 6 7 8 9 10 11 12 13 14
402
FTUS45 KRIW 070540
TAFBPI
TAF
KBPI 070540Z 0706/0806 VRB06KT 6SM -SN SCT015 OVC030
      TEMPO 0706/0708 2SM -SN
     FM071200 VRB05KT P6SM SCT025 OVC040
     FM071800 VRB05KT P6SM SCT040
     FM080200 34005KT P6SM VCFG FEW005 SCT250=

USA.gov is the U.S. government's official web portal to all federal, state and local government web resources and services.